createdAt,value
2018-12-31T00:00:38.746Z,83.78
2018-12-31T00:03:26.276Z,84.15
2018-12-31T00:06:13.836Z,82.60
2018-12-31T00:09:02.358Z,83.44
2018-12-31T00:12:00.240Z,83.88
2018-12-31T00:14:47.938Z,84.20
2018-12-31T00:17:39.147Z,84.47
2018-12-31T00:20:26.638Z,84.65
2018-12-31T00:23:14.432Z,84.72
2018-12-31T00:26:03.933Z,84.82
2018-12-31T00:28:51.355Z,84.92
2018-12-31T00:31:38.750Z,83.35
2018-12-31T00:34:26.177Z,84.00
2018-12-31T00:37:13.707Z,84.27
2018-12-31T00:40:02.493Z,84.51
2018-12-31T00:42:48.982Z,84.66
2018-12-31T00:45:37.889Z,84.72
2018-12-31T00:48:26.232Z,84.84
2018-12-31T00:51:13.918Z,84.90
2018-12-31T00:54:00.978Z,85.06
2018-12-31T00:56:48.180Z,85.16
2018-12-31T00:59:35.494Z,85.20
2018-12-31T01:02:22.859Z,85.16
2018-12-31T01:05:10.384Z,85.17
2018-12-31T01:07:58.630Z,85.24
2018-12-31T01:10:46.044Z,85.28
2018-12-31T01:13:33.488Z,85.25
2018-12-31T01:16:26.496Z,85.28
2018-12-31T01:19:13.979Z,85.31
2018-12-31T01:22:09.640Z,85.33
2018-12-31T01:24:56.589Z,85.44
2018-12-31T01:27:43.651Z,85.39
2018-12-31T01:30:30.620Z,85.43
2018-12-31T01:33:30.753Z,85.42
2018-12-31T01:36:36.386Z,85.34
2018-12-31T01:39:40.225Z,85.29
2018-12-31T01:42:30.123Z,85.28
2018-12-31T01:45:17.268Z,85.19
2018-12-31T01:48:04.601Z,85.19
2018-12-31T01:50:52.121Z,85.17
2018-12-31T01:53:39.557Z,85.09
2018-12-31T01:56:26.850Z,85.07
2018-12-31T01:59:16.659Z,85.04
2018-12-31T02:02:06.609Z,83.45
2018-12-31T02:05:00.679Z,83.96
2018-12-31T02:07:54.065Z,84.15
2018-12-31T02:10:50.579Z,82.54
2018-12-31T02:13:41.298Z,83.31
2018-12-31T02:16:28.639Z,81.73
2018-12-31T02:19:17.687Z,82.60
2018-12-31T02:22:06.885Z,81.22
2018-12-31T02:24:57.045Z,82.28
2018-12-31T02:27:45.600Z,82.94
2018-12-31T02:30:34.707Z,83.40
2018-12-31T02:33:22.909Z,81.83
2018-12-31T02:36:24.138Z,82.78
2018-12-31T02:39:12.845Z,81.20
2018-12-31T02:42:00.396Z,82.28
2018-12-31T02:44:47.387Z,82.84
2018-12-31T02:47:36.910Z,83.18
2018-12-31T02:50:29.308Z,83.52
2018-12-31T02:53:17.775Z,83.72
2018-12-31T02:56:07.001Z,83.86
2018-12-31T02:58:58.594Z,84.02
2018-12-31T03:01:50.388Z,84.13
2018-12-31T03:04:39.623Z,84.23
2018-12-31T03:07:29.872Z,82.56
2018-12-31T03:10:19.240Z,83.27
2018-12-31T03:13:07.169Z,83.67
2018-12-31T03:15:54.413Z,83.90
2018-12-31T03:18:41.514Z,84.08
2018-12-31T03:24:02.675Z,82.82
2018-12-31T03:26:51.845Z,81.68
2018-12-31T03:29:39.638Z,82.65
2018-12-31T03:32:26.618Z,83.20
2018-12-31T03:35:15.116Z,83.57
2018-12-31T03:38:02.662Z,83.86
2018-12-31T03:40:50.345Z,84.14
2018-12-31T03:43:37.933Z,84.27
2018-12-31T03:46:25.835Z,84.43
2018-12-31T03:49:13.049Z,84.55
2018-12-31T03:55:08.404Z,84.82
2018-12-31T03:57:55.817Z,84.81
2018-12-31T04:00:43.092Z,84.87
2018-12-31T04:03:30.455Z,83.23
2018-12-31T04:06:18.049Z,83.83
2018-12-31T04:09:05.572Z,84.13
2018-12-31T04:11:53.139Z,84.29
2018-12-31T04:14:40.488Z,84.45
2018-12-31T04:17:28.895Z,84.54
2018-12-31T04:20:16.801Z,84.57
2018-12-31T04:23:04.420Z,82.98
2018-12-31T04:25:51.782Z,81.78
2018-12-31T04:28:39.489Z,82.66
2018-12-31T04:31:26.837Z,83.19
2018-12-31T04:34:13.924Z,83.51
2018-12-31T04:37:01.199Z,83.82
2018-12-31T04:39:48.877Z,84.03
2018-12-31T04:42:35.868Z,84.24
2018-12-31T04:48:32.717Z,84.59
2018-12-31T04:51:20.027Z,84.67
2018-12-31T04:54:07.186Z,83.11
2018-12-31T04:56:56.110Z,83.77
2018-12-31T04:59:43.095Z,84.10
2018-12-31T05:02:30.541Z,84.33
2018-12-31T05:05:17.894Z,84.50
2018-12-31T05:08:05.278Z,84.65
2018-12-31T05:10:52.433Z,84.77
2018-12-31T05:13:39.670Z,84.83
2018-12-31T05:16:26.870Z,84.92
2018-12-31T05:19:14.089Z,84.95
2018-12-31T05:22:01.187Z,83.33
2018-12-31T05:24:48.662Z,83.90
2018-12-31T05:27:36.192Z,84.27
2018-12-31T05:30:23.575Z,84.49
2018-12-31T05:33:11.299Z,84.76
2018-12-31T05:35:58.599Z,84.91
2018-12-31T05:38:46.655Z,85.05
2018-12-31T05:41:34.176Z,83.44
2018-12-31T05:44:21.699Z,84.25
2018-12-31T05:47:09.334Z,84.68
2018-12-31T05:49:56.513Z,84.99
2018-12-31T05:52:43.737Z,85.19
2018-12-31T05:55:31.185Z,85.36
2018-12-31T05:58:18.804Z,85.45
2018-12-31T06:01:06.223Z,85.67
2018-12-31T06:03:53.318Z,85.87
2018-12-31T06:06:40.787Z,84.26
2018-12-31T06:09:27.966Z,83.12
2018-12-31T06:12:15.590Z,84.10
2018-12-31T06:15:03.033Z,84.58
2018-12-31T06:17:50.631Z,84.85
2018-12-31T06:20:38.095Z,85.09
2018-12-31T06:23:25.565Z,83.40
2018-12-31T06:26:14.270Z,84.21
2018-12-31T06:29:01.705Z,84.64
2018-12-31T06:34:56.626Z,85.17
2018-12-31T06:37:44.119Z,85.33
2018-12-31T06:40:31.921Z,85.49
2018-12-31T06:43:19.066Z,85.60
2018-12-31T06:46:22.032Z,85.69
2018-12-31T06:49:09.386Z,85.75
2018-12-31T06:51:56.791Z,85.77
2018-12-31T06:54:44.152Z,85.75
2018-12-31T06:57:31.329Z,84.08
2018-12-31T07:00:18.715Z,84.56
2018-12-31T07:03:06.236Z,84.87
2018-12-31T07:05:53.789Z,83.24
2018-12-31T07:08:41.081Z,83.96
2018-12-31T07:11:28.546Z,82.56
2018-12-31T07:14:16.072Z,83.57
2018-12-31T07:17:03.267Z,84.12
2018-12-31T07:19:50.405Z,84.54
2018-12-31T07:22:38.034Z,83.02
2018-12-31T07:25:25.677Z,83.96
2018-12-31T07:28:12.828Z,84.64
2018-12-31T07:30:59.961Z,83.08
2018-12-31T07:33:47.119Z,82.02
2018-12-31T07:36:35.369Z,83.32
2018-12-31T07:39:24.206Z,82.06
2018-12-31T07:42:13.893Z,83.25
2018-12-31T07:45:01.107Z,83.97
2018-12-31T07:47:48.533Z,82.55
2018-12-31T07:50:38.879Z,83.75
2018-12-31T07:53:26.042Z,84.37
2018-12-31T07:56:13.401Z,84.77
2018-12-31T07:59:00.739Z,85.23
2018-12-31T08:01:47.949Z,85.48
2018-12-31T08:04:35.317Z,85.72
2018-12-31T08:07:23.664Z,85.97
2018-12-31T08:10:11.063Z,86.11
2018-12-31T08:12:58.203Z,86.28
2018-12-31T08:15:45.256Z,86.32
2018-12-31T08:18:32.984Z,86.36
2018-12-31T08:21:20.299Z,84.74
2018-12-31T08:24:07.788Z,85.49
2018-12-31T08:26:54.966Z,85.84
2018-12-31T08:29:42.395Z,86.04
2018-12-31T08:32:29.514Z,86.25
2018-12-31T08:35:16.531Z,86.34
2018-12-31T08:38:03.816Z,86.31
2018-12-31T08:40:50.898Z,86.32
2018-12-31T08:43:40.841Z,86.35
2018-12-31T08:46:28.054Z,86.41
2018-12-31T08:49:15.425Z,86.42
2018-12-31T08:52:02.823Z,86.59
2018-12-31T08:54:50.435Z,86.69
2018-12-31T08:57:38.874Z,86.70
2018-12-31T09:00:28.104Z,84.87
2018-12-31T09:03:16.074Z,85.28
2018-12-31T09:06:04.461Z,83.50
2018-12-31T09:08:51.987Z,84.30
2018-12-31T09:11:39.567Z,84.83
2018-12-31T09:14:27.080Z,85.10
2018-12-31T09:17:15.212Z,85.33
2018-12-31T09:23:14.713Z,85.83
2018-12-31T09:29:09.574Z,86.06
2018-12-31T09:31:56.983Z,84.26
2018-12-31T09:34:44.634Z,82.80
2018-12-31T09:37:32.095Z,83.80
2018-12-31T09:40:24.819Z,84.38
2018-12-31T09:43:12.387Z,84.73
2018-12-31T09:45:59.839Z,85.08
2018-12-31T09:48:47.357Z,85.29
2018-12-31T09:51:34.652Z,85.41
2018-12-31T09:54:21.911Z,85.58
2018-12-31T09:57:09.598Z,85.73
2018-12-31T10:03:02.759Z,85.92
2018-12-31T10:05:50.328Z,86.02
2018-12-31T10:08:37.657Z,86.15
2018-12-31T10:11:24.894Z,86.22
2018-12-31T10:14:12.344Z,86.36
2018-12-31T10:16:59.533Z,86.45
2018-12-31T10:19:47.065Z,86.64
2018-12-31T10:22:34.094Z,86.91
2018-12-31T10:25:30.055Z,87.22
2018-12-31T10:28:17.409Z,87.35
2018-12-31T10:31:04.593Z,87.51
2018-12-31T10:33:51.727Z,87.55
2018-12-31T10:36:39.174Z,87.47
2018-12-31T10:39:26.291Z,87.34
2018-12-31T10:42:13.986Z,87.29
2018-12-31T10:45:01.506Z,87.23
2018-12-31T10:47:49.191Z,87.14
2018-12-31T10:50:36.531Z,86.91
2018-12-31T10:53:24.040Z,86.73
2018-12-31T10:56:13.268Z,86.52
2018-12-31T10:59:00.446Z,86.36
2018-12-31T11:01:55.404Z,86.17
2018-12-31T11:04:48.173Z,86.13
2018-12-31T11:07:36.308Z,85.97
2018-12-31T11:10:24.553Z,83.68
2018-12-31T11:16:19.576Z,80.03
2018-12-31T11:19:08.155Z,81.30
2018-12-31T11:21:55.677Z,82.05
2018-12-31T11:24:42.953Z,82.64
2018-12-31T11:27:31.724Z,83.02
2018-12-31T11:30:22.044Z,83.11
2018-12-31T11:33:09.690Z,83.22
2018-12-31T11:39:04.241Z,83.46
2018-12-31T11:41:54.130Z,83.25
2018-12-31T11:44:41.607Z,83.19
2018-12-31T11:47:30.690Z,82.95
2018-12-31T11:50:18.150Z,80.33
2018-12-31T11:53:05.292Z,81.41
2018-12-31T11:56:06.234Z,82.09
2018-12-31T11:58:54.778Z,82.58
2018-12-31T12:01:42.207Z,82.81
2018-12-31T12:04:30.201Z,82.94
2018-12-31T12:07:17.690Z,83.04
2018-12-31T12:10:07.308Z,83.18
2018-12-31T12:12:52.224Z,83.43
2018-12-31T12:15:41.617Z,83.47
2018-12-31T12:18:30.574Z,83.60
2018-12-31T12:21:19.622Z,83.67
2018-12-31T12:24:07.488Z,83.82
2018-12-31T12:26:55.122Z,83.78
2018-12-31T12:29:44.055Z,83.78
2018-12-31T12:32:31.463Z,83.64
2018-12-31T12:35:18.913Z,83.69
2018-12-31T12:38:06.246Z,83.41
2018-12-31T12:41:01.605Z,83.46
2018-12-31T12:43:49.152Z,83.44
2018-12-31T12:46:37.395Z,83.34
2018-12-31T12:49:32.574Z,83.52
2018-12-31T12:52:20.325Z,83.57
2018-12-31T12:55:07.567Z,83.70
2018-12-31T12:57:55.273Z,83.87
2018-12-31T13:00:42.673Z,81.89
2018-12-31T13:03:29.995Z,82.80
2018-12-31T13:06:17.450Z,83.46
2018-12-31T13:09:09.474Z,83.99
2018-12-31T13:11:58.546Z,81.92
2018-12-31T13:14:46.073Z,82.97
2018-12-31T13:17:34.928Z,83.66
2018-12-31T13:23:31.578Z,84.64
2018-12-31T13:26:19.466Z,82.72
2018-12-31T13:29:06.968Z,83.70
2018-12-31T13:31:54.418Z,84.28
2018-12-31T13:34:41.989Z,84.67
2018-12-31T13:37:31.610Z,84.99
2018-12-31T13:40:19.843Z,83.15
2018-12-31T13:46:14.357Z,84.95
2018-12-31T13:49:02.865Z,83.43
2018-12-31T13:51:50.378Z,84.84
2018-12-31T13:54:38.042Z,85.49
2018-12-31T14:00:32.220Z,85.38
2018-12-31T14:03:20.587Z,86.09
2018-12-31T14:12:21.306Z,86.26
2018-12-31T14:15:12.754Z,87.03
2018-12-31T14:18:02.566Z,87.49
2018-12-31T14:20:52.345Z,87.86
2018-12-31T14:23:39.783Z,88.00
2018-12-31T14:26:31.134Z,88.49
2018-12-31T14:29:19.327Z,88.72
2018-12-31T14:32:07.178Z,88.86
2018-12-31T14:34:56.698Z,89.04
2018-12-31T14:37:43.921Z,89.18
2018-12-31T14:40:33.179Z,89.38
2018-12-31T14:43:23.763Z,89.40
2018-12-31T14:46:14.974Z,89.51
2018-12-31T14:49:05.329Z,89.67
2018-12-31T14:55:05.595Z,89.87
2018-12-31T14:57:55.883Z,89.89
2018-12-31T15:00:44.205Z,90.09
2018-12-31T15:03:38.890Z,90.08
2018-12-31T15:06:30.326Z,90.12
2018-12-31T15:09:17.696Z,90.23
2018-12-31T15:12:16.836Z,90.27
2018-12-31T15:15:04.903Z,90.47
2018-12-31T15:18:02.265Z,90.31
2018-12-31T15:20:53.780Z,90.37
2018-12-31T15:23:41.316Z,90.34
2018-12-31T15:26:29.683Z,90.30
2018-12-31T15:29:17.250Z,90.23
2018-12-31T15:32:05.576Z,90.32
2018-12-31T15:34:53.105Z,90.56
2018-12-31T15:37:40.889Z,90.47
2018-12-31T15:43:34.769Z,90.90
2018-12-31T15:46:24.036Z,91.00
2018-12-31T15:49:12.016Z,90.92
2018-12-31T15:51:59.513Z,89.36
2018-12-31T15:54:51.616Z,89.80
2018-12-31T15:57:38.907Z,89.88
2018-12-31T16:00:25.846Z,90.17
2018-12-31T16:03:13.671Z,90.29
2018-12-31T16:06:01.367Z,90.73
2018-12-31T16:08:54.930Z,90.89
2018-12-31T16:11:42.355Z,91.10
2018-12-31T16:14:29.801Z,91.21
2018-12-31T16:17:18.904Z,91.46
2018-12-31T16:20:06.571Z,91.40
2018-12-31T16:22:54.040Z,91.47
2018-12-31T16:25:42.485Z,90.04
2018-12-31T16:28:30.349Z,90.74
2018-12-31T16:31:18.049Z,91.05
2018-12-31T16:34:12.950Z,91.12
2018-12-31T16:37:01.349Z,91.19
2018-12-31T16:39:48.658Z,91.27
2018-12-31T16:42:35.813Z,91.38
2018-12-31T16:45:40.839Z,91.67
2018-12-31T16:48:28.164Z,91.65
2018-12-31T16:51:16.075Z,91.71
2018-12-31T16:54:05.671Z,91.75
2018-12-31T16:56:52.603Z,91.79
2018-12-31T16:59:39.842Z,90.37
2018-12-31T17:02:28.145Z,89.46
2018-12-31T17:05:15.627Z,90.12
2018-12-31T17:08:02.870Z,90.50
2018-12-31T17:10:50.682Z,90.93
2018-12-31T17:13:38.382Z,89.57
2018-12-31T17:16:25.497Z,90.42
2018-12-31T17:19:13.293Z,90.81
2018-12-31T17:22:01.632Z,91.01
2018-12-31T17:24:51.310Z,91.16
2018-12-31T17:27:39.153Z,91.36
2018-12-31T17:30:28.773Z,91.60
2018-12-31T17:33:17.273Z,91.60
2018-12-31T17:39:11.338Z,92.04
2018-12-31T17:41:58.847Z,92.14
2018-12-31T17:44:46.272Z,92.35
2018-12-31T17:47:33.566Z,92.35
2018-12-31T17:50:21.372Z,92.34
2018-12-31T17:53:27.274Z,92.23
2018-12-31T17:56:15.501Z,92.33
2018-12-31T17:59:02.683Z,92.42
2018-12-31T18:01:50.461Z,92.43
2018-12-31T18:04:37.903Z,91.03
2018-12-31T18:07:25.705Z,91.66
2018-12-31T18:10:13.652Z,92.00
2018-12-31T18:13:01.049Z,90.61
2018-12-31T18:15:49.222Z,89.70
2018-12-31T18:18:36.592Z,88.87
2018-12-31T18:21:26.837Z,89.54
2018-12-31T18:24:15.387Z,89.98
2018-12-31T18:27:03.424Z,88.74
2018-12-31T18:29:50.947Z,89.45
2018-12-31T18:32:38.346Z,89.88
2018-12-31T18:35:25.545Z,90.22
2018-12-31T18:38:12.972Z,90.60
2018-12-31T18:41:00.521Z,89.24
2018-12-31T18:43:48.861Z,89.85
2018-12-31T18:46:37.383Z,90.36
2018-12-31T18:49:24.915Z,89.04
2018-12-31T18:52:12.068Z,89.80
2018-12-31T18:55:01.821Z,90.22
2018-12-31T18:57:49.373Z,90.57
2018-12-31T19:00:36.795Z,90.90
2018-12-31T19:03:24.861Z,91.03
2018-12-31T19:06:12.553Z,91.21
2018-12-31T19:09:00.046Z,89.87
2018-12-31T19:14:53.534Z,89.61
2018-12-31T19:20:49.449Z,88.59
2018-12-31T19:23:37.693Z,89.30
2018-12-31T19:26:28.806Z,89.73
2018-12-31T19:32:22.433Z,89.42
2018-12-31T19:35:10.819Z,90.01
2018-12-31T19:37:58.986Z,90.51
2018-12-31T19:40:48.771Z,90.76
2018-12-31T19:43:37.144Z,89.30
2018-12-31T19:46:24.348Z,90.00
2018-12-31T19:49:13.638Z,90.38
2018-12-31T19:52:00.977Z,90.60
2018-12-31T19:54:48.456Z,90.64
2018-12-31T19:57:36.167Z,90.79
2018-12-31T20:03:32.636Z,91.06
2018-12-31T20:06:20.514Z,91.15
2018-12-31T20:09:08.433Z,89.74
2018-12-31T20:11:56.444Z,90.27
2018-12-31T20:14:44.915Z,90.60
2018-12-31T20:17:32.208Z,89.13
2018-12-31T20:20:19.937Z,89.80
2018-12-31T20:23:06.995Z,90.12
2018-12-31T20:25:54.296Z,88.70
2018-12-31T20:28:41.817Z,89.19
2018-12-31T20:31:29.142Z,89.69
2018-12-31T20:34:17.587Z,89.97
2018-12-31T20:37:04.746Z,90.24
2018-12-31T20:39:52.129Z,90.38
2018-12-31T20:42:39.340Z,90.55
2018-12-31T20:45:27.682Z,90.75
2018-12-31T20:48:15.282Z,90.99
2018-12-31T20:51:02.411Z,91.16
2018-12-31T20:53:49.844Z,91.39
2018-12-31T20:56:37.258Z,89.92
2018-12-31T20:59:24.710Z,90.30
2018-12-31T21:02:12.031Z,90.53
2018-12-31T21:04:59.884Z,90.82
2018-12-31T21:07:47.558Z,90.98
2018-12-31T21:10:34.837Z,91.14
2018-12-31T21:13:21.687Z,89.76
2018-12-31T21:16:09.788Z,88.74
2018-12-31T21:18:57.926Z,89.33
2018-12-31T21:21:45.409Z,89.63
2018-12-31T21:24:38.281Z,89.80
2018-12-31T21:27:41.341Z,89.97
2018-12-31T21:30:28.533Z,90.11
2018-12-31T21:33:15.955Z,90.26
2018-12-31T21:36:03.279Z,90.33
2018-12-31T21:38:50.906Z,90.43
2018-12-31T21:41:38.223Z,90.52
2018-12-31T21:44:25.457Z,90.62
2018-12-31T21:47:13.059Z,89.23
2018-12-31T21:50:00.583Z,89.99
2018-12-31T21:52:49.098Z,90.22
2018-12-31T21:55:36.886Z,90.38
2018-12-31T21:58:24.257Z,90.79
2018-12-31T22:01:11.525Z,90.86
2018-12-31T22:03:58.989Z,91.03
2018-12-31T22:06:53.997Z,91.18
2018-12-31T22:09:41.581Z,91.24
2018-12-31T22:12:28.889Z,91.34
2018-12-31T22:15:16.221Z,89.89
2018-12-31T22:18:03.838Z,88.83
2018-12-31T22:20:51.078Z,89.47
2018-12-31T22:23:38.477Z,89.75
2018-12-31T22:26:25.999Z,89.95
2018-12-31T22:29:13.219Z,90.26
2018-12-31T22:32:00.742Z,90.45
2018-12-31T22:34:48.369Z,90.62
2018-12-31T22:37:35.674Z,90.67
2018-12-31T22:40:23.845Z,90.66
2018-12-31T22:43:11.190Z,90.67
2018-12-31T22:45:58.377Z,90.80
2018-12-31T22:48:45.745Z,90.91
2018-12-31T22:51:34.485Z,90.87
2018-12-31T22:54:24.250Z,90.89
2018-12-31T22:57:11.619Z,90.95
2018-12-31T23:00:00.152Z,90.97
2018-12-31T23:02:47.595Z,91.02
2018-12-31T23:05:35.132Z,90.96
2018-12-31T23:11:29.781Z,90.90
2018-12-31T23:14:18.026Z,90.83
2018-12-31T23:17:05.719Z,90.77
2018-12-31T23:19:53.185Z,90.77
2018-12-31T23:22:40.537Z,90.67
2018-12-31T23:25:27.561Z,90.61
2018-12-31T23:28:14.730Z,89.04
2018-12-31T23:31:02.002Z,87.88
2018-12-31T23:33:49.078Z,88.36
2018-12-31T23:36:36.237Z,88.63
2018-12-31T23:39:23.743Z,87.24
2018-12-31T23:42:19.214Z,86.27
2018-12-31T23:45:06.180Z,87.14
2018-12-31T23:47:53.950Z,87.65
2018-12-31T23:50:41.339Z,87.95
2018-12-31T23:53:44.254Z,88.22
2018-12-31T23:56:31.730Z,86.73
